Portada
METAR-TAF:

METAR-TAF

Aeroports :

Iakutsk, Rússia

latitud: 62-01N, longitud: 129-43E, altitud: 103 m

Observació

L'informe es va fer fa 29 minuts, a les 04:00 UTC
Vent calma
Temperatura -24°C
Humitat 76%
Pressió 1012 hPa
Visibilitat 10 km o més
sense núvols per sota de 1500 mi sense presència de cumulonimbus.

METAR: UEEE 230400Z 00000MPS CAVOK M24/M27 Q1012 R23L/450147 NOSIG RMK QFE750

Hora: 13:29 (04:29 UTC)

Pronòstic

L'informe es va fer fa 2 hores i 29 minuts, a les 02:00 UTC
Pronòstic vàlid del 23 a les 03 UTC al 24 a les 09 UTC
Vent 2 kt amb direcció variable
Visibilitat 10 km o més
sense núvols per sota de 1500 mi sense presència de cumulonimbus.
Temporalment
l' 23 a les 03 UTC al 23 a les 24 UTC
Visibilitat 10 km o més
neu

TAF: UEEE 230200Z 2303/2409 VRB01MPS CAVOK TEMPO 2303/2324 9999 -SN NSC

Observacions i pronòstics meteorològics de més de 4000 aeroports (METAR i TAF).

Les estacions disponibles són els punts grocs i vermells al mapa.

Posi el ratolí al punt desitjat per veure el nom de l'estació.

Feu clic per veure les observacions i els pronòstics meteorològics.

Per canviar el mapa: feu clic els botons verds amb una creu de color negre per apropar; al botó verd amb un guió per allunyar la imatge; o en les fletxes verdes per a mapes adjacents.


METAR-TAF: